createdAt,value
2022-10-19T00:00:42.650Z,98755.84
2022-10-19T00:01:45.548Z,98756.63
2022-10-19T00:02:48.349Z,98753.94
2022-10-19T00:03:53.986Z,98746.81
2022-10-19T00:04:56.855Z,98749.94
2022-10-19T00:05:59.974Z,98747.62
2022-10-19T00:07:02.757Z,98744.69
2022-10-19T00:08:06.409Z,98748.78
2022-10-19T00:09:12.170Z,98745.19
2022-10-19T00:10:14.889Z,98744.41
2022-10-19T00:11:17.531Z,98746.75
2022-10-19T00:12:20.133Z,98741.19
2022-10-19T00:13:22.806Z,98738.56
2022-10-19T00:14:26.375Z,98740.62
2022-10-19T00:15:29.129Z,98738.97
2022-10-19T00:16:34.983Z,98730.41
2022-10-19T00:17:37.737Z,98733.63
2022-10-19T00:18:43.569Z,98731.19
2022-10-19T00:19:55.274Z,98733.50
2022-10-19T00:21:09.140Z,98730.41
2022-10-19T00:22:13.917Z,98735.06
2022-10-19T00:23:17.095Z,98731.66
2022-10-19T00:24:20.331Z,98725.44
2022-10-19T00:25:23.133Z,98735.84
2022-10-19T00:26:26.246Z,98730.00
2022-10-19T00:27:28.975Z,98729.81
2022-10-19T00:28:34.987Z,98732.62
2022-10-19T00:29:39.026Z,98728.94
2022-10-19T00:30:41.899Z,98728.84
2022-10-19T00:31:44.781Z,98726.00
2022-10-19T00:32:47.574Z,98731.75
2022-10-19T00:33:50.673Z,98740.00
2022-10-19T00:34:53.493Z,98725.59
2022-10-19T00:35:56.332Z,98723.75
2022-10-19T00:36:59.180Z,98723.97
2022-10-19T00:38:02.052Z,98728.16
2022-10-19T00:39:07.776Z,98722.31
2022-10-19T00:40:10.892Z,98717.66
2022-10-19T00:41:18.024Z,98716.66
2022-10-19T00:42:20.932Z,98706.34
2022-10-19T00:43:26.773Z,98710.22
2022-10-19T00:44:29.660Z,98705.75
2022-10-19T00:45:32.533Z,98706.75
2022-10-19T00:46:38.410Z,98706.44
2022-10-19T00:47:42.491Z,98710.06
2022-10-19T00:48:45.862Z,98704.41
2022-10-19T00:49:48.813Z,98702.12
2022-10-19T00:50:54.498Z,98703.13
2022-10-19T00:52:06.048Z,98703.91
2022-10-19T00:53:09.020Z,98699.13
2022-10-19T00:54:12.784Z,98692.78
2022-10-19T00:55:15.653Z,98690.44
2022-10-19T00:56:20.293Z,98691.91
2022-10-19T00:57:23.493Z,98687.53
2022-10-19T00:58:30.135Z,98691.59
2022-10-19T00:59:34.060Z,98689.34
2022-10-19T01:00:37.613Z,98690.06
2022-10-19T01:01:41.093Z,98689.84
2022-10-19T01:02:43.929Z,98695.41
2022-10-19T01:03:47.223Z,98694.59
2022-10-19T01:04:52.532Z,98685.47
2022-10-19T01:05:56.012Z,98684.47
2022-10-19T01:07:00.572Z,98687.97
2022-10-19T01:08:07.353Z,98686.06
2022-10-19T01:09:10.212Z,98670.75
2022-10-19T01:10:13.530Z,98675.59
2022-10-19T01:11:50.175Z,98682.84
2022-10-19T01:13:15.016Z,98682.63
2022-10-19T01:14:52.172Z,98678.22
2022-10-19T01:16:17.914Z,98677.16
2022-10-19T01:17:38.139Z,98676.59
2022-10-19T01:18:50.173Z,98678.94
2022-10-19T01:20:05.536Z,98678.31
2022-10-19T01:21:22.493Z,98675.31
2022-10-19T01:23:02.662Z,98673.75
2022-10-19T01:24:23.858Z,98674.34
2022-10-19T01:25:44.815Z,98668.97
2022-10-19T01:27:43.375Z,98676.28
2022-10-19T01:29:04.127Z,98672.47
2022-10-19T01:30:27.219Z,98666.75
2022-10-19T01:31:38.635Z,98671.41
2022-10-19T01:32:55.890Z,98668.41
2022-10-19T01:34:15.856Z,98659.63
2022-10-19T01:35:39.491Z,98664.78
2022-10-19T01:37:00.651Z,98664.00
2022-10-19T01:38:14.853Z,98663.53
2022-10-19T01:39:36.112Z,98663.81
2022-10-19T01:40:52.306Z,98656.75
2022-10-19T01:42:12.192Z,98663.47
2022-10-19T01:43:24.167Z,98664.38
2022-10-19T01:44:36.216Z,98651.69
2022-10-19T01:45:41.253Z,98655.53
2022-10-19T01:46:57.761Z,98649.06
2022-10-19T01:48:15.921Z,98656.97
2022-10-19T01:49:43.374Z,98649.66
2022-10-19T01:50:48.792Z,98652.56
2022-10-19T01:52:00.888Z,98660.66
2022-10-19T01:53:06.830Z,98649.66
2022-10-19T01:54:14.582Z,98647.97
2022-10-19T01:55:19.621Z,98646.22
2022-10-19T01:56:27.827Z,98648.56
2022-10-19T01:57:43.117Z,98649.34
2022-10-19T01:58:47.124Z,98654.78
2022-10-19T01:59:50.704Z,98654.13
2022-10-19T02:00:56.885Z,98650.06
2022-10-19T02:02:00.726Z,98650.97
2022-10-19T02:03:06.286Z,98656.41
2022-10-19T02:04:11.848Z,98652.22
2022-10-19T02:05:17.469Z,98660.56
2022-10-19T02:06:21.250Z,98658.16
2022-10-19T02:07:25.719Z,98658.69
2022-10-19T02:08:38.255Z,98661.38
2022-10-19T02:09:41.062Z,98657.50
2022-10-19T02:10:45.523Z,98664.88
2022-10-19T02:11:56.141Z,98655.72
2022-10-19T02:13:03.050Z,98659.63
2022-10-19T02:14:13.217Z,98663.25
2022-10-19T02:15:20.296Z,98659.25
2022-10-19T02:16:38.316Z,98660.81
2022-10-19T02:17:47.534Z,98657.16
2022-10-19T02:18:53.496Z,98663.09
2022-10-19T02:19:57.419Z,98661.72
2022-10-19T02:21:04.890Z,98658.78
2022-10-19T02:22:08.693Z,98662.69
2022-10-19T02:23:13.453Z,98655.56
2022-10-19T02:24:16.211Z,98662.44
2022-10-19T02:25:19.573Z,98667.16
2022-10-19T02:26:22.773Z,98666.84
2022-10-19T02:27:26.004Z,98662.78
2022-10-19T02:28:31.261Z,98664.63
2022-10-19T02:29:36.250Z,98667.75
2022-10-19T02:30:39.212Z,98658.00
2022-10-19T02:31:42.538Z,98660.72
2022-10-19T02:32:45.381Z,98663.34
2022-10-19T02:33:48.345Z,98656.91
2022-10-19T02:34:51.260Z,98659.19
2022-10-19T02:35:54.314Z,98654.19
2022-10-19T02:36:57.931Z,98655.09
2022-10-19T02:38:02.571Z,98647.19
2022-10-19T02:39:07.902Z,98649.75
2022-10-19T02:40:11.817Z,98648.75
2022-10-19T02:41:22.377Z,98649.94
2022-10-19T02:42:35.901Z,98648.41
2022-10-19T02:43:41.330Z,98648.31
2022-10-19T02:44:58.372Z,98650.38
2022-10-19T02:46:06.451Z,98649.88
2022-10-19T02:47:22.661Z,98647.81
2022-10-19T02:48:30.732Z,98644.53
2022-10-19T02:49:36.373Z,98639.28
2022-10-19T02:50:44.505Z,98646.16
2022-10-19T02:52:06.535Z,98642.88
2022-10-19T02:53:09.418Z,98637.78
2022-10-19T02:54:12.415Z,98643.91
2022-10-19T02:55:15.270Z,98646.72
2022-10-19T02:56:18.255Z,98646.53
2022-10-19T02:57:24.320Z,98644.41
2022-10-19T02:58:27.226Z,98641.59
2022-10-19T02:59:30.373Z,98645.19
2022-10-19T03:00:33.824Z,98656.50
2022-10-19T03:01:36.659Z,98656.00
2022-10-19T03:02:39.494Z,98650.66
2022-10-19T03:03:42.180Z,98653.59
2022-10-19T03:04:48.828Z,98651.03
2022-10-19T03:05:55.704Z,98649.50
2022-10-19T03:06:58.662Z,98648.91
2022-10-19T03:08:01.895Z,98655.50
2022-10-19T03:09:04.895Z,98656.69
2022-10-19T03:10:08.060Z,98664.28
2022-10-19T03:11:11.305Z,98658.34
2022-10-19T03:12:14.658Z,98665.56
2022-10-19T03:13:17.475Z,98663.41
2022-10-19T03:14:20.278Z,98666.44
2022-10-19T03:15:25.052Z,98667.22
2022-10-19T03:16:28.016Z,98661.72
2022-10-19T03:17:31.182Z,98663.41
2022-10-19T03:18:36.629Z,98658.53
2022-10-19T03:19:39.706Z,98661.25
2022-10-19T03:20:42.535Z,98656.88
2022-10-19T03:21:45.651Z,98655.03
2022-10-19T03:22:48.515Z,98665.06
2022-10-19T03:23:51.806Z,98654.84
2022-10-19T03:24:58.214Z,98654.06
2022-10-19T03:26:01.273Z,98649.41
2022-10-19T03:27:04.251Z,98652.53
2022-10-19T03:28:07.117Z,98653.38
2022-10-19T03:29:09.920Z,98648.72
2022-10-19T03:30:12.927Z,98646.44
2022-10-19T03:31:15.682Z,98649.84
2022-10-19T03:32:18.565Z,98653.06
2022-10-19T03:33:21.506Z,98647.31
2022-10-19T03:34:24.390Z,98652.97
2022-10-19T03:35:27.742Z,98653.16
2022-10-19T03:36:36.052Z,98661.75
2022-10-19T03:37:38.887Z,98657.69
2022-10-19T03:38:42.879Z,98663.59
2022-10-19T03:39:45.748Z,98661.75
2022-10-19T03:40:48.576Z,98672.66
2022-10-19T03:41:51.435Z,98679.38
2022-10-19T03:42:54.135Z,98675.25
2022-10-19T03:43:57.858Z,98679.25
2022-10-19T03:45:00.703Z,98675.75
2022-10-19T03:46:03.854Z,98668.34
2022-10-19T03:47:06.620Z,98677.97
2022-10-19T03:48:10.700Z,98676.81
2022-10-19T03:49:14.026Z,98670.28
2022-10-19T03:50:17.495Z,98665.16
2022-10-19T03:51:25.379Z,98662.59
2022-10-19T03:52:28.173Z,98657.34
2022-10-19T03:53:33.164Z,98657.44
2022-10-19T03:54:36.291Z,98650.13
2022-10-19T03:56:42.636Z,98659.28
2022-10-19T03:57:45.384Z,98666.69
2022-10-19T03:58:50.173Z,98658.00
2022-10-19T03:59:53.076Z,98659.47
2022-10-19T04:00:55.889Z,98663.47
2022-10-19T04:01:58.663Z,98656.72
2022-10-19T04:03:01.580Z,98658.47
2022-10-19T04:04:11.011Z,98657.31
2022-10-19T04:05:14.006Z,98654.75
2022-10-19T04:06:21.294Z,98647.84
2022-10-19T04:07:25.103Z,98648.34
2022-10-19T04:08:30.718Z,98650.00
2022-10-19T04:09:33.859Z,98647.19
2022-10-19T04:10:36.642Z,98647.69
2022-10-19T04:11:40.146Z,98653.81
2022-10-19T04:12:42.869Z,98644.41
2022-10-19T04:13:53.302Z,98658.25
2022-10-19T04:14:57.574Z,98650.00
2022-10-19T04:16:01.280Z,98642.56
2022-10-19T04:17:04.583Z,98640.16
2022-10-19T04:18:07.517Z,98650.66
2022-10-19T04:19:15.267Z,98640.44
2022-10-19T04:20:21.371Z,98648.03
2022-10-19T04:21:26.748Z,98644.28
2022-10-19T04:22:29.526Z,98645.03
2022-10-19T04:23:35.287Z,98649.72
2022-10-19T04:24:37.998Z,98644.16
2022-10-19T04:25:40.929Z,98637.13
2022-10-19T04:26:49.725Z,98643.13
2022-10-19T04:27:56.267Z,98645.03
2022-10-19T04:29:01.504Z,98643.41
2022-10-19T04:30:05.306Z,98639.53
2022-10-19T04:31:08.613Z,98646.88
2022-10-19T04:32:11.631Z,98645.44
2022-10-19T04:33:14.525Z,98636.69
2022-10-19T04:34:17.840Z,98647.09
2022-10-19T04:35:20.632Z,98641.88
2022-10-19T04:36:28.738Z,98650.81
2022-10-19T04:37:31.853Z,98655.56
2022-10-19T04:38:37.412Z,98654.25
2022-10-19T04:39:41.447Z,98654.47
2022-10-19T04:40:44.167Z,98647.59
2022-10-19T04:41:47.012Z,98654.28
2022-10-19T04:42:49.850Z,98657.03
2022-10-19T04:43:58.472Z,98659.06
2022-10-19T04:45:01.248Z,98641.06
2022-10-19T04:46:15.429Z,98650.44
2022-10-19T04:47:18.198Z,98649.41
2022-10-19T04:48:23.054Z,98651.34
2022-10-19T04:49:27.414Z,98648.88
2022-10-19T04:50:30.168Z,98652.84
2022-10-19T04:51:34.438Z,98653.34
2022-10-19T04:52:37.178Z,98643.81
2022-10-19T04:53:44.423Z,98638.69
2022-10-19T04:54:47.407Z,98633.72
2022-10-19T04:55:50.138Z,98640.03
2022-10-19T04:56:54.102Z,98645.44
2022-10-19T04:57:56.937Z,98643.38
2022-10-19T04:59:01.320Z,98649.41
2022-10-19T05:00:05.021Z,98655.00
2022-10-19T05:01:17.253Z,98655.22
2022-10-19T05:02:20.341Z,98644.87
2022-10-19T05:03:23.056Z,98641.25
2022-10-19T05:04:25.789Z,98651.37
2022-10-19T05:05:28.514Z,98645.31
2022-10-19T05:06:32.252Z,98647.06
2022-10-19T05:07:35.392Z,98648.69
2022-10-19T05:08:39.798Z,98658.47
2022-10-19T05:09:42.645Z,98661.09
2022-10-19T05:10:47.623Z,98660.56
2022-10-19T05:11:51.464Z,98657.53
2022-10-19T05:12:54.747Z,98653.66
2022-10-19T05:13:57.696Z,98659.37
2022-10-19T05:15:00.463Z,98663.91
2022-10-19T05:16:06.739Z,98654.34
2022-10-19T05:17:09.553Z,98660.56
2022-10-19T05:18:14.760Z,98654.97
2022-10-19T05:19:18.568Z,98653.38
2022-10-19T05:20:21.643Z,98646.28
2022-10-19T05:21:24.903Z,98654.94
2022-10-19T05:22:27.913Z,98658.06
2022-10-19T05:24:38.586Z,98661.03
2022-10-19T05:25:41.403Z,98662.00
2022-10-19T05:26:44.906Z,98660.09
2022-10-19T05:27:52.469Z,98654.66
2022-10-19T05:29:04.737Z,98670.66
2022-10-19T05:30:08.861Z,98662.53
2022-10-19T05:31:19.055Z,98666.69
2022-10-19T05:32:21.906Z,98657.06
2022-10-19T05:33:24.751Z,98664.00
2022-10-19T05:34:27.510Z,98663.75
2022-10-19T05:35:30.339Z,98674.44
2022-10-19T05:36:39.560Z,98678.34
2022-10-19T05:37:42.393Z,98672.72
2022-10-19T05:38:48.277Z,98677.47
2022-10-19T05:39:51.116Z,98672.09
2022-10-19T05:40:53.944Z,98664.56
2022-10-19T05:41:56.837Z,98667.25
2022-10-19T05:42:59.743Z,98675.50
2022-10-19T05:44:04.173Z,98668.41
2022-10-19T05:45:07.537Z,98668.97
2022-10-19T05:46:13.668Z,98674.84
2022-10-19T05:47:16.881Z,98669.38
2022-10-19T05:48:20.541Z,98682.94
2022-10-19T05:49:23.638Z,98669.53
2022-10-19T05:50:26.563Z,98678.38
2022-10-19T05:51:29.694Z,98675.06
2022-10-19T05:52:32.444Z,98674.00
2022-10-19T05:53:35.903Z,98682.59
2022-10-19T05:54:38.793Z,98677.56
2022-10-19T05:55:41.557Z,98680.44
2022-10-19T05:56:45.150Z,98676.06
2022-10-19T05:57:47.959Z,98681.38
2022-10-19T05:58:53.514Z,98677.78
2022-10-19T05:59:58.610Z,98681.66
2022-10-19T06:01:02.507Z,98691.16
2022-10-19T06:02:05.440Z,98697.97
2022-10-19T06:03:08.407Z,98703.44
2022-10-19T06:04:14.194Z,98694.22
2022-10-19T06:05:17.174Z,98694.22
2022-10-19T06:06:20.429Z,98697.53
2022-10-19T06:07:23.478Z,98682.50
2022-10-19T06:08:27.221Z,98693.00
2022-10-19T06:09:36.033Z,98685.13
2022-10-19T06:10:38.941Z,98700.44
2022-10-19T06:11:42.810Z,98704.28
2022-10-19T06:12:45.607Z,98701.09
2022-10-19T06:13:50.830Z,98705.00
2022-10-19T06:14:53.535Z,98704.41
2022-10-19T06:15:56.295Z,98712.03
2022-10-19T06:16:59.289Z,98703.34
2022-10-19T06:18:04.395Z,98706.78
2022-10-19T06:19:08.389Z,98708.13
2022-10-19T06:20:11.638Z,98708.53
2022-10-19T06:21:20.212Z,98709.03
2022-10-19T06:22:23.011Z,98706.69
2022-10-19T06:23:25.860Z,98706.13
2022-10-19T06:24:28.698Z,98711.22
2022-10-19T06:25:32.509Z,98706.47
2022-10-19T06:26:36.052Z,98708.16
2022-10-19T06:27:39.313Z,98714.19
2022-10-19T06:28:43.790Z,98703.19
2022-10-19T06:29:46.753Z,98712.41
2022-10-19T06:30:49.879Z,98713.84
2022-10-19T06:31:54.464Z,98711.22
2022-10-19T06:32:59.361Z,98717.25
2022-10-19T06:34:02.405Z,98717.97
2022-10-19T06:35:05.651Z,98725.69
2022-10-19T06:36:18.950Z,98714.19
2022-10-19T06:37:21.572Z,98728.78
2022-10-19T06:38:25.423Z,98723.25
2022-10-19T06:39:28.173Z,98728.66
2022-10-19T06:40:34.556Z,98727.75
2022-10-19T06:41:38.357Z,98724.69
2022-10-19T06:42:41.178Z,98725.19
2022-10-19T06:43:44.311Z,98731.62
2022-10-19T06:44:47.090Z,98738.44
2022-10-19T06:45:49.783Z,98729.97
2022-10-19T06:46:52.986Z,98736.13
2022-10-19T06:47:55.809Z,98734.88
2022-10-19T06:49:01.611Z,98737.28
2022-10-19T06:50:09.468Z,98739.84
2022-10-19T06:51:13.850Z,98739.94
2022-10-19T06:52:16.573Z,98739.25
2022-10-19T06:53:19.466Z,98745.00
2022-10-19T06:54:22.310Z,98740.72
2022-10-19T06:55:25.849Z,98740.50
2022-10-19T06:56:28.786Z,98747.72
2022-10-19T06:57:35.877Z,98744.50
2022-10-19T06:58:41.065Z,98751.03
2022-10-19T06:59:43.852Z,98751.19
2022-10-19T07:00:47.906Z,98754.19
2022-10-19T07:01:50.763Z,98757.31
2022-10-19T07:02:53.632Z,98762.25
2022-10-19T07:03:56.633Z,98758.44
2022-10-19T07:05:03.239Z,98759.09
2022-10-19T07:06:12.891Z,98764.41
2022-10-19T07:07:15.725Z,98758.47
2022-10-19T07:08:26.914Z,98767.50
2022-10-19T07:09:30.017Z,98764.03
2022-10-19T07:10:32.837Z,98766.91
2022-10-19T07:11:35.664Z,98770.47
2022-10-19T07:12:38.577Z,98764.69
2022-10-19T07:13:41.296Z,98765.59
2022-10-19T07:14:44.073Z,98771.94
2022-10-19T07:15:47.483Z,98772.06
2022-10-19T07:16:50.974Z,98766.37
2022-10-19T07:17:53.849Z,98770.00
2022-10-19T07:18:56.652Z,98770.06
2022-10-19T07:19:59.401Z,98773.78
2022-10-19T07:21:04.372Z,98775.00
2022-10-19T07:22:07.111Z,98780.34
2022-10-19T07:23:10.015Z,98782.72
2022-10-19T07:24:12.707Z,98783.66
2022-10-19T07:25:15.567Z,98777.75
2022-10-19T07:26:26.790Z,98780.13
2022-10-19T07:27:31.870Z,98777.00
2022-10-19T07:28:41.457Z,98781.63
2022-10-19T07:29:44.367Z,98784.50
2022-10-19T07:30:47.255Z,98792.56
2022-10-19T07:31:50.319Z,98788.22
2022-10-19T07:32:53.158Z,98788.06
2022-10-19T07:33:58.111Z,98787.28
2022-10-19T07:35:00.862Z,98789.31
2022-10-19T07:36:07.362Z,98787.28
2022-10-19T07:37:10.215Z,98784.34
2022-10-19T07:38:13.302Z,98795.69
2022-10-19T07:39:19.497Z,98800.84
2022-10-19T07:40:22.792Z,98800.22
2022-10-19T07:41:26.936Z,98798.63
2022-10-19T07:42:33.067Z,98797.22
2022-10-19T07:43:36.491Z,98804.37
2022-10-19T07:44:39.471Z,98798.91
2022-10-19T07:45:42.281Z,98802.78
2022-10-19T07:46:45.655Z,98803.25
2022-10-19T07:47:48.446Z,98796.19
2022-10-19T07:48:52.346Z,98796.41
2022-10-19T07:49:55.267Z,98804.44
2022-10-19T07:50:58.351Z,98791.16
2022-10-19T07:52:01.032Z,98789.63
2022-10-19T07:53:05.515Z,98796.81
2022-10-19T07:54:08.504Z,98789.56
2022-10-19T07:55:11.425Z,98794.50
2022-10-19T07:56:23.577Z,98790.22
2022-10-19T07:57:27.309Z,98789.91
2022-10-19T07:58:30.199Z,98784.25
2022-10-19T07:59:34.666Z,98781.78
2022-10-19T08:00:37.617Z,98785.19
2022-10-19T08:01:41.897Z,98779.78
2022-10-19T08:03:00.034Z,98785.28
2022-10-19T08:05:33.426Z,98774.31
2022-10-19T08:06:37.724Z,98775.44
2022-10-19T08:07:40.536Z,98777.53
2022-10-19T08:08:49.145Z,98779.13
2022-10-19T08:09:53.818Z,98775.09
2022-10-19T08:10:57.575Z,98788.00
2022-10-19T08:12:00.584Z,98784.00
2022-10-19T08:13:03.323Z,98778.69
2022-10-19T08:14:06.208Z,98779.78
2022-10-19T08:15:09.348Z,98780.03
2022-10-19T08:16:33.086Z,98776.88
2022-10-19T08:17:37.183Z,98778.41
2022-10-19T08:18:45.905Z,98778.94
2022-10-19T08:19:48.712Z,98782.97
2022-10-19T08:20:51.425Z,98779.44
2022-10-19T08:21:54.349Z,98788.41
2022-10-19T08:23:07.407Z,98785.19
2022-10-19T08:24:15.520Z,98780.97
2022-10-19T08:25:18.408Z,98782.94
2022-10-19T08:26:21.689Z,98784.88
2022-10-19T08:27:24.548Z,98782.25
2022-10-19T08:28:29.137Z,98785.25
2022-10-19T08:29:32.127Z,98794.97
2022-10-19T08:30:36.214Z,98783.53
2022-10-19T08:31:39.340Z,98787.06
2022-10-19T08:32:42.140Z,98778.59
2022-10-19T08:33:45.346Z,98780.09
2022-10-19T08:34:48.170Z,98794.44
2022-10-19T08:35:51.121Z,98788.38
2022-10-19T08:36:53.874Z,98795.19
2022-10-19T08:37:58.656Z,98790.69
2022-10-19T08:39:07.716Z,98787.63
2022-10-19T08:40:26.019Z,98791.75
2022-10-19T08:41:41.200Z,98787.09
2022-10-19T08:42:54.675Z,98793.38
2022-10-19T08:44:22.364Z,98794.03
2022-10-19T08:45:44.880Z,98789.97
2022-10-19T08:46:50.658Z,98786.41
2022-10-19T08:48:06.011Z,98793.78
2022-10-19T08:49:16.316Z,98789.00
2022-10-19T08:50:24.297Z,98785.62
2022-10-19T08:51:28.970Z,98794.53
2022-10-19T08:52:35.881Z,98788.44
2022-10-19T08:53:58.605Z,98789.37
2022-10-19T08:55:14.015Z,98789.28
2022-10-19T08:57:05.794Z,98789.72
2022-10-19T08:58:46.320Z,98796.00
2022-10-19T09:00:10.203Z,98797.78
2022-10-19T09:01:28.420Z,98799.47
2022-10-19T09:02:49.362Z,98802.09
2022-10-19T09:04:02.480Z,98798.88
2022-10-19T09:05:28.878Z,98795.47
2022-10-19T09:06:57.393Z,98798.81
2022-10-19T09:08:01.168Z,98790.22
2022-10-19T09:09:06.461Z,98792.50
2022-10-19T09:10:16.034Z,98795.97
2022-10-19T09:11:26.118Z,98789.22
2022-10-19T09:12:41.497Z,98788.81
2022-10-19T09:14:04.359Z,98789.28
2022-10-19T09:15:14.349Z,98781.81
2022-10-19T09:16:19.965Z,98788.31
2022-10-19T09:17:22.813Z,98778.56
2022-10-19T09:18:30.299Z,98785.62
2022-10-19T09:19:33.156Z,98789.87
2022-10-19T09:20:40.664Z,98787.38
2022-10-19T09:21:56.197Z,98782.41
2022-10-19T09:23:21.015Z,98792.06
2022-10-19T09:24:39.194Z,98788.97
2022-10-19T09:25:42.072Z,98791.03
2022-10-19T09:26:53.720Z,98793.50
2022-10-19T09:28:36.669Z,98800.22
2022-10-19T09:29:48.344Z,98798.59
2022-10-19T09:30:56.920Z,98792.19
2022-10-19T09:32:04.029Z,98799.78
2022-10-19T09:33:16.380Z,98799.66
2022-10-19T09:34:46.619Z,98794.66
2022-10-19T09:35:50.632Z,98797.63
2022-10-19T09:36:59.107Z,98794.25
2022-10-19T09:38:02.513Z,98796.22
2022-10-19T09:39:05.755Z,98800.12
2022-10-19T09:40:17.362Z,98803.16
2022-10-19T09:41:22.869Z,98796.09
2022-10-19T09:42:30.636Z,98808.69
2022-10-19T09:43:34.375Z,98807.06
2022-10-19T09:44:37.098Z,98801.12
2022-10-19T09:46:01.093Z,98810.75
2022-10-19T09:47:31.235Z,98797.16
2022-10-19T09:48:55.623Z,98801.78
2022-10-19T09:50:24.647Z,98800.59
2022-10-19T09:51:40.714Z,98806.56
2022-10-19T09:52:46.145Z,98801.69
2022-10-19T09:53:54.774Z,98810.38
2022-10-19T09:55:04.593Z,98805.47
2022-10-19T09:56:12.439Z,98812.03
2022-10-19T09:57:22.168Z,98805.13
2022-10-19T09:58:33.040Z,98804.22
2022-10-19T09:59:36.979Z,98803.53
2022-10-19T10:00:48.385Z,98796.53
2022-10-19T10:02:07.665Z,98795.00
2022-10-19T10:03:29.690Z,98804.19
2022-10-19T10:04:32.616Z,98803.31
2022-10-19T10:05:41.368Z,98798.19
2022-10-19T10:06:46.933Z,98793.06
2022-10-19T10:07:55.457Z,98795.50
2022-10-19T10:08:59.284Z,98787.88
2022-10-19T10:10:08.877Z,98797.37
2022-10-19T10:11:14.836Z,98790.75
2022-10-19T10:12:17.695Z,98797.59
2022-10-19T10:13:25.081Z,98799.03
2022-10-19T10:14:40.546Z,98796.19
2022-10-19T10:15:48.482Z,98792.31
2022-10-19T10:17:27.817Z,98790.69
2022-10-19T10:18:38.523Z,98792.38
2022-10-19T10:19:59.679Z,98798.53
2022-10-19T10:21:12.441Z,98793.62
2022-10-19T10:22:27.989Z,98790.44
2022-10-19T10:23:36.589Z,98782.97
2022-10-19T10:24:52.232Z,98790.22
2022-10-19T10:25:57.497Z,98779.81
2022-10-19T10:27:03.278Z,98782.84
2022-10-19T10:28:23.740Z,98782.19
2022-10-19T10:29:28.877Z,98779.59
2022-10-19T10:30:36.808Z,98787.63
2022-10-19T10:31:42.676Z,98779.25
2022-10-19T10:32:51.857Z,98776.69
2022-10-19T10:34:10.971Z,98781.66
2022-10-19T10:35:37.495Z,98776.09
2022-10-19T10:36:40.592Z,98771.31
2022-10-19T10:37:46.368Z,98772.97
2022-10-19T10:39:07.548Z,98774.81
2022-10-19T10:40:30.262Z,98760.00
2022-10-19T10:41:40.261Z,98770.28
2022-10-19T10:42:46.016Z,98773.37
2022-10-19T10:44:07.124Z,98777.47
2022-10-19T10:45:20.800Z,98769.69
2022-10-19T10:46:29.881Z,98764.72
2022-10-19T10:47:33.178Z,98771.56
2022-10-19T10:48:43.228Z,98769.69
2022-10-19T10:49:57.314Z,98757.25
2022-10-19T10:51:01.692Z,98761.13
2022-10-19T10:52:16.401Z,98758.31
2022-10-19T10:53:40.405Z,98758.56
2022-10-19T10:54:59.525Z,98748.25
2022-10-19T10:56:04.522Z,98752.09
2022-10-19T10:57:18.764Z,98747.72
2022-10-19T10:58:48.212Z,98738.63
2022-10-19T10:59:53.602Z,98742.91
2022-10-19T11:00:57.430Z,98742.16
2022-10-19T11:02:10.691Z,98745.59
2022-10-19T11:03:20.610Z,98739.84
2022-10-19T11:04:30.241Z,98748.25
2022-10-19T11:05:41.142Z,98744.16
2022-10-19T11:06:55.274Z,98751.13
2022-10-19T11:08:19.102Z,98750.47
2022-10-19T11:09:39.602Z,98739.25
2022-10-19T11:10:59.303Z,98735.56
2022-10-19T11:12:05.846Z,98739.81
2022-10-19T11:13:50.147Z,98728.59
2022-10-19T11:15:20.057Z,98735.66
2022-10-19T11:16:34.028Z,98725.88
2022-10-19T11:17:40.335Z,98740.31
2022-10-19T11:18:55.280Z,98741.56
2022-10-19T11:19:58.925Z,98732.88
2022-10-19T11:21:34.574Z,98725.69
2022-10-19T11:23:00.410Z,98735.03
2022-10-19T11:24:35.838Z,98726.63
2022-10-19T11:25:44.616Z,98733.94
2022-10-19T11:27:16.611Z,98727.69
2022-10-19T11:28:44.124Z,98726.94
2022-10-19T11:30:18.836Z,98726.84
2022-10-19T11:31:37.421Z,98735.53
2022-10-19T11:32:50.234Z,98721.28
2022-10-19T11:34:11.073Z,98713.03
2022-10-19T11:35:44.893Z,98723.78
2022-10-19T11:37:06.008Z,98719.63
2022-10-19T11:38:25.122Z,98709.66
2022-10-19T11:39:36.917Z,98717.94
2022-10-19T11:41:19.521Z,98719.28
2022-10-19T11:44:29.992Z,98705.56
2022-10-19T11:45:35.448Z,98710.50
2022-10-19T11:46:56.429Z,98703.97
2022-10-19T11:48:20.631Z,98712.34
2022-10-19T11:49:45.435Z,98701.91
2022-10-19T11:51:17.279Z,98703.50
2022-10-19T11:52:46.603Z,98705.84
2022-10-19T11:54:10.017Z,98707.31
2022-10-19T11:55:38.325Z,98706.91
2022-10-19T11:57:02.179Z,98709.38
2022-10-19T11:58:35.265Z,98703.50
2022-10-19T12:00:08.172Z,98694.00
2022-10-19T12:01:59.531Z,98692.94
2022-10-19T12:03:23.588Z,98687.22
2022-10-19T12:04:51.149Z,98695.03
2022-10-19T12:06:08.418Z,98698.13
2022-10-19T12:07:23.076Z,98691.41
2022-10-19T12:08:37.679Z,98703.16
2022-10-19T12:09:53.474Z,98688.31
2022-10-19T12:11:23.688Z,98701.22
2022-10-19T12:12:32.502Z,98687.75
2022-10-19T12:13:49.430Z,98692.88
2022-10-19T12:15:01.597Z,98695.06
2022-10-19T12:16:06.010Z,98696.19
2022-10-19T12:17:20.398Z,98698.59
2022-10-19T12:18:49.229Z,98684.06
2022-10-19T12:19:56.776Z,98676.84
2022-10-19T12:21:03.494Z,98685.94
2022-10-19T12:22:13.976Z,98684.84
2022-10-19T12:23:26.424Z,98684.38
2022-10-19T12:24:30.962Z,98691.94
2022-10-19T12:25:36.260Z,98683.78
2022-10-19T12:26:41.636Z,98683.13
2022-10-19T12:27:50.310Z,98691.31
2022-10-19T12:29:01.128Z,98678.72
2022-10-19T12:30:30.346Z,98676.47
2022-10-19T12:31:35.787Z,98681.03
2022-10-19T12:32:54.252Z,98688.63
2022-10-19T12:34:09.594Z,98683.13
2022-10-19T12:35:31.452Z,98682.66
2022-10-19T12:36:47.105Z,98685.41
2022-10-19T12:38:04.137Z,98684.03
2022-10-19T12:39:21.090Z,98682.97
2022-10-19T12:40:45.198Z,98682.59
2022-10-19T12:41:52.798Z,98679.00
2022-10-19T12:43:24.458Z,98678.88
2022-10-19T12:44:36.458Z,98674.16
2022-10-19T12:45:52.508Z,98677.47
2022-10-19T12:47:10.569Z,98674.63
2022-10-19T12:48:14.559Z,98671.25
2022-10-19T12:49:26.906Z,98671.66
2022-10-19T12:50:54.286Z,98674.44
2022-10-19T12:52:01.963Z,98672.47
2022-10-19T12:53:05.579Z,98668.81
2022-10-19T12:54:09.911Z,98670.16
2022-10-19T12:55:15.634Z,98663.66
2022-10-19T12:56:20.512Z,98663.56
2022-10-19T12:57:30.511Z,98661.34
2022-10-19T12:58:47.463Z,98667.97
2022-10-19T13:00:24.814Z,98666.13
2022-10-19T13:01:33.477Z,98668.25
2022-10-19T13:02:39.411Z,98660.72
2022-10-19T13:03:45.306Z,98660.97
2022-10-19T13:04:54.377Z,98661.56
2022-10-19T13:06:16.434Z,98651.50
2022-10-19T13:07:19.623Z,98643.19
2022-10-19T13:08:32.846Z,98650.38
2022-10-19T13:09:39.742Z,98649.94
2022-10-19T13:11:06.448Z,98652.44
2022-10-19T13:12:16.182Z,98657.13
2022-10-19T13:13:52.481Z,98652.22
2022-10-19T13:14:58.721Z,98650.38
2022-10-19T13:16:02.777Z,98649.94
2022-10-19T13:17:05.626Z,98645.75
2022-10-19T13:18:44.654Z,98639.19
2022-10-19T13:19:47.539Z,98647.47
2022-10-19T13:20:53.413Z,98658.06
2022-10-19T13:22:02.456Z,98662.19
2022-10-19T13:23:05.170Z,98648.31
2022-10-19T13:24:26.130Z,98645.53
2022-10-19T13:25:39.499Z,98657.66
2022-10-19T13:26:42.358Z,98648.91
2022-10-19T13:27:46.965Z,98650.13
2022-10-19T13:28:55.818Z,98653.97
2022-10-19T13:29:58.725Z,98651.25
2022-10-19T13:31:07.137Z,98669.28
2022-10-19T13:32:45.517Z,98650.50